Decoded Metar for VVNB (HANOI in VIET NAM) (IATA:HAN) | Meteo·Mobile Aviation Weather
aviador You're here:

VVNB Decoded Metar

HANOI in VIET NAM
Report Time2019-07-22 16:00:00
UTC Time2019-07-22 16:39:28
Flight Rules vfr VFR
Wind110° at 07 kt
W.Decomp.*RWY 11: 7.0 kt HW 0.1 kt RCW
Visibility9999 m
Phenomena:N/A
Clouds:N/A
Expected CloudBase > 1,200 ft AGL from Temp-Dew spread
CeilingNone
Temp30°C (ISA +15)
Dew Point27°C (84% RH)
Heat Index38.8°C
QNH1002 hPa
Density Alt2,582 ft
Elevation20 ft
Report Wrong Elevation
Raw Report
VVNB 221600Z 11007KT CAVOK 30/27 Q1002 NOSIG=

Extra information for VVNB:More info

Metar Taf Metar & Taf Last 4 Metars F.Rules Stats Wind Profile Meteogram Temp Stats Airport Information Weather charts Add Link Nearby VenuesMetar ALERT Operation Metar Decoded Social comments